sensor_id;sensor_type;location;lat;lon;timestamp;pressure;altitude;pressure_sealevel;temperature;humidity
21185;BME280;18176;49.502;11.754;2023-02-04T00:03:24;97676.53;;;7.04;75.91
21185;BME280;18176;49.502;11.754;2023-02-04T00:07:25;97681.28;;;6.94;74.32
21185;BME280;18176;49.502;11.754;2023-02-04T00:11:28;97678.38;;;6.89;75.05
21185;BME280;18176;49.502;11.754;2023-02-04T00:15:31;97696.56;;;6.84;74.48
21185;BME280;18176;49.502;11.754;2023-02-04T00:19:37;97690.69;;;6.61;73.28
21185;BME280;18176;49.502;11.754;2023-02-04T00:23:40;97684.75;;;6.59;73.70
21185;BME280;18176;49.502;11.754;2023-02-04T00:27:50;97690.66;;;6.82;71.01
21185;BME280;18176;49.502;11.754;2023-02-04T00:31:52;97719.22;;;6.78;71.74
21185;BME280;18176;49.502;11.754;2023-02-04T00:36:01;97714.47;;;6.53;70.12
21185;BME280;18176;49.502;11.754;2023-02-04T00:40:01;97735.38;;;6.40;69.64
21185;BME280;18176;49.502;11.754;2023-02-04T00:44:04;97726.38;;;6.49;69.31
21185;BME280;18176;49.502;11.754;2023-02-04T00:48:04;97727.78;;;6.66;69.00
21185;BME280;18176;49.502;11.754;2023-02-04T00:52:09;97746.97;;;6.60;68.89
21185;BME280;18176;49.502;11.754;2023-02-04T00:56:11;97747.84;;;6.67;68.96
21185;BME280;18176;49.502;11.754;2023-02-04T01:00:14;97723.88;;;6.62;68.09
21185;BME280;18176;49.502;11.754;2023-02-04T01:04:21;97746.59;;;6.63;68.72
21185;BME280;18176;49.502;11.754;2023-02-04T01:08:31;97765.88;;;6.84;67.95
21185;BME280;18176;49.502;11.754;2023-02-04T01:12:34;97757.56;;;6.66;68.43
21185;BME280;18176;49.502;11.754;2023-02-04T01:16:38;97752.59;;;6.57;68.47
21185;BME280;18176;49.502;11.754;2023-02-04T01:20:39;97757.75;;;6.65;67.05
21185;BME280;18176;49.502;11.754;2023-02-04T01:24:47;97772.03;;;6.56;67.19
21185;BME280;18176;49.502;11.754;2023-02-04T01:29:08;97780.19;;;6.61;67.01
21185;BME280;18176;49.502;11.754;2023-02-04T01:33:09;97775.38;;;6.64;67.55
21185;BME280;18176;49.502;11.754;2023-02-04T01:37:18;97770.38;;;6.55;65.93
21185;BME280;18176;49.502;11.754;2023-02-04T01:41:38;97784.38;;;6.70;65.59
21185;BME280;18176;49.502;11.754;2023-02-04T01:45:42;97794.06;;;6.69;64.89
21185;BME280;18176;49.502;11.754;2023-02-04T01:49:51;97774.31;;;6.44;65.63
21185;BME280;18176;49.502;11.754;2023-02-04T01:53:52;97792.47;;;6.54;65.83
21185;BME280;18176;49.502;11.754;2023-02-04T01:57:57;97760.59;;;6.19;66.54
21185;BME280;18176;49.502;11.754;2023-02-04T02:02:01;97812.31;;;6.71;65.04
21185;BME280;18176;49.502;11.754;2023-02-04T02:06:03;97790.53;;;6.48;65.00
21185;BME280;18176;49.502;11.754;2023-02-04T02:10:09;97813.69;;;6.52;65.36
21185;BME280;18176;49.502;11.754;2023-02-04T02:14:14;97808.97;;;6.62;64.82
21185;BME280;18176;49.502;11.754;2023-02-04T02:18:20;97806.00;;;6.51;64.87
21185;BME280;18176;49.502;11.754;2023-02-04T02:22:32;97821.94;;;6.64;65.49
21185;BME280;18176;49.502;11.754;2023-02-04T02:26:37;97827.91;;;6.87;64.79
21185;BME280;18176;49.502;11.754;2023-02-04T02:30:41;97823.50;;;6.58;64.74
21185;BME280;18176;49.502;11.754;2023-02-04T02:34:47;97839.91;;;6.75;64.99
21185;BME280;18176;49.502;11.754;2023-02-04T02:38:48;97823.03;;;6.55;65.11
21185;BME280;18176;49.502;11.754;2023-02-04T02:42:53;97830.59;;;6.58;65.24
21185;BME280;18176;49.502;11.754;2023-02-04T02:46:55;97829.41;;;6.31;65.59
21185;BME280;18176;49.502;11.754;2023-02-04T02:50:55;97813.78;;;6.29;65.27
21185;BME280;18176;49.502;11.754;2023-02-04T02:54:56;97855.56;;;6.32;65.80
21185;BME280;18176;49.502;11.754;2023-02-04T02:59:16;97857.25;;;6.40;65.94
21185;BME280;18176;49.502;11.754;2023-02-04T03:03:26;97857.34;;;6.32;66.14
21185;BME280;18176;49.502;11.754;2023-02-04T03:07:27;97840.84;;;6.23;65.77
21185;BME280;18176;49.502;11.754;2023-02-04T03:11:28;97862.06;;;6.07;67.05
21185;BME280;18176;49.502;11.754;2023-02-04T03:15:35;97874.72;;;5.89;67.58
21185;BME280;18176;49.502;11.754;2023-02-04T03:19:38;97837.88;;;5.89;67.31
21185;BME280;18176;49.502;11.754;2023-02-04T03:23:39;97891.69;;;6.01;67.72
21185;BME280;18176;49.502;11.754;2023-02-04T03:27:43;97878.06;;;5.75;68.17
21185;BME280;18176;49.502;11.754;2023-02-04T03:31:48;97888.22;;;5.78;68.42
21185;BME280;18176;49.502;11.754;2023-02-04T03:35:51;97889.66;;;5.89;68.46
21185;BME280;18176;49.502;11.754;2023-02-04T03:39:52;97911.84;;;6.09;68.15
21185;BME280;18176;49.502;11.754;2023-02-04T03:43:55;97893.13;;;5.81;68.08
21185;BME280;18176;49.502;11.754;2023-02-04T03:48:00;97918.09;;;6.30;67.35
21185;BME280;18176;49.502;11.754;2023-02-04T03:52:02;97906.53;;;6.31;67.59
21185;BME280;18176;49.502;11.754;2023-02-04T03:56:05;97948.06;;;6.44;67.34
21185;BME280;18176;49.502;11.754;2023-02-04T04:00:08;97938.69;;;6.42;66.88
21185;BME280;18176;49.502;11.754;2023-02-04T04:04:12;97979.72;;;6.36;67.90
21185;BME280;18176;49.502;11.754;2023-02-04T04:08:14;97910.91;;;5.79;68.09
21185;BME280;18176;49.502;11.754;2023-02-04T04:12:15;97999.78;;;6.37;68.81
21185;BME280;18176;49.502;11.754;2023-02-04T04:16:16;97992.34;;;6.41;68.67
21185;BME280;18176;49.502;11.754;2023-02-04T04:20:19;97917.81;;;5.80;68.94
21185;BME280;18176;49.502;11.754;2023-02-04T04:24:23;97971.13;;;6.19;68.78
21185;BME280;18176;49.502;11.754;2023-02-04T04:28:24;98015.47;;;6.30;69.02
21185;BME280;18176;49.502;11.754;2023-02-04T04:32:24;98017.81;;;6.25;69.50
21185;BME280;18176;49.502;11.754;2023-02-04T04:36:28;98023.41;;;6.22;69.96
21185;BME280;18176;49.502;11.754;2023-02-04T04:40:29;97998.56;;;6.02;70.17
21185;BME280;18176;49.502;11.754;2023-02-04T04:44:30;98049.63;;;6.38;70.23
21185;BME280;18176;49.502;11.754;2023-02-04T04:48:31;98068.22;;;6.60;70.69
21185;BME280;18176;49.502;11.754;2023-02-04T04:52:37;98114.94;;;6.12;74.67
21185;BME280;18176;49.502;11.754;2023-02-04T04:56:38;98127.06;;;4.95;78.20
21185;BME280;18176;49.502;11.754;2023-02-04T05:00:39;98133.31;;;4.46;82.22
21185;BME280;18176;49.502;11.754;2023-02-04T05:04:40;98107.00;;;4.22;83.59
21185;BME280;18176;49.502;11.754;2023-02-04T05:08:46;98139.84;;;4.42;83.73
21185;BME280;18176;49.502;11.754;2023-02-04T05:12:48;98130.13;;;4.26;84.71
21185;BME280;18176;49.502;11.754;2023-02-04T05:16:50;98157.53;;;4.40;84.80
21185;BME280;18176;49.502;11.754;2023-02-04T05:20:53;98150.16;;;4.36;84.16
21185;BME280;18176;49.502;11.754;2023-02-04T05:24:57;98112.56;;;4.03;82.68
21185;BME280;18176;49.502;11.754;2023-02-04T05:29:03;98159.19;;;4.41;82.15
21185;BME280;18176;49.502;11.754;2023-02-04T05:33:06;98182.47;;;4.36;82.74
21185;BME280;18176;49.502;11.754;2023-02-04T05:37:09;98180.06;;;4.51;80.28
21185;BME280;18176;49.502;11.754;2023-02-04T05:41:14;98156.84;;;4.14;80.66
21185;BME280;18176;49.502;11.754;2023-02-04T05:45:16;98176.53;;;4.26;80.86
21185;BME280;18176;49.502;11.754;2023-02-04T05:49:19;98215.00;;;4.59;80.65
21185;BME280;18176;49.502;11.754;2023-02-04T05:53:21;98215.44;;;4.47;80.93
21185;BME280;18176;49.502;11.754;2023-02-04T05:57:25;98239.25;;;4.45;81.27
21185;BME280;18176;49.502;11.754;2023-02-04T06:01:27;98241.84;;;4.37;81.38
21185;BME280;18176;49.502;11.754;2023-02-04T06:05:33;98240.06;;;4.46;80.46
21185;BME280;18176;49.502;11.754;2023-02-04T06:09:34;98263.16;;;4.34;80.73
21185;BME280;18176;49.502;11.754;2023-02-04T06:13:37;98270.31;;;4.58;79.73
21185;BME280;18176;49.502;11.754;2023-02-04T06:17:39;98275.69;;;4.48;79.93
21185;BME280;18176;49.502;11.754;2023-02-04T06:21:40;98267.75;;;4.40;79.17
21185;BME280;18176;49.502;11.754;2023-02-04T06:25:41;98288.28;;;4.45;79.30
21185;BME280;18176;49.502;11.754;2023-02-04T06:29:45;98299.41;;;4.05;79.66
21185;BME280;18176;49.502;11.754;2023-02-04T06:33:46;98256.38;;;3.90;79.74
21185;BME280;18176;49.502;11.754;2023-02-04T06:37:47;98324.53;;;4.41;78.49
21185;BME280;18176;49.502;11.754;2023-02-04T06:41:52;98334.88;;;4.17;79.39
21185;BME280;18176;49.502;11.754;2023-02-04T06:45:55;98354.53;;;4.13;80.05
21185;BME280;18176;49.502;11.754;2023-02-04T06:49:57;98361.09;;;4.17;80.29
21185;BME280;18176;49.502;11.754;2023-02-04T06:53:58;98366.16;;;4.10;80.26
21185;BME280;18176;49.502;11.754;2023-02-04T06:57:59;98378.31;;;4.11;80.02
21185;BME280;18176;49.502;11.754;2023-02-04T07:02:05;98381.13;;;4.18;80.35
21185;BME280;18176;49.502;11.754;2023-02-04T07:06:06;98393.13;;;4.20;80.02
21185;BME280;18176;49.502;11.754;2023-02-04T07:10:08;98410.91;;;4.09;80.35
21185;BME280;18176;49.502;11.754;2023-02-04T07:14:11;98431.59;;;4.12;80.10
21185;BME280;18176;49.502;11.754;2023-02-04T07:18:15;98421.81;;;4.22;79.95
21185;BME280;18176;49.502;11.754;2023-02-04T07:22:16;98433.44;;;4.19;79.93
21185;BME280;18176;49.502;11.754;2023-02-04T07:26:17;98448.13;;;4.12;80.53
21185;BME280;18176;49.502;11.754;2023-02-04T07:30:20;98444.63;;;4.04;80.87
21185;BME280;18176;49.502;11.754;2023-02-04T07:34:23;98428.59;;;4.07;80.61
21185;BME280;18176;49.502;11.754;2023-02-04T07:38:25;98478.84;;;4.20;80.26
21185;BME280;18176;49.502;11.754;2023-02-04T07:42:26;98474.41;;;4.38;79.63
21185;BME280;18176;49.502;11.754;2023-02-04T07:46:38;98460.91;;;4.33;78.56
21185;BME280;18176;49.502;11.754;2023-02-04T07:50:45;98468.22;;;4.47;78.32
21185;BME280;18176;49.502;11.754;2023-02-04T07:54:45;98472.56;;;4.56;77.49
21185;BME280;18176;49.502;11.754;2023-02-04T07:58:47;98441.66;;;4.76;76.25
21185;BME280;18176;49.502;11.754;2023-02-04T08:02:50;98441.69;;;4.50;76.44
21185;BME280;18176;49.502;11.754;2023-02-04T08:06:56;98508.38;;;4.91;75.89
21185;BME280;18176;49.502;11.754;2023-02-04T08:11:04;98504.91;;;4.90;73.95
21185;BME280;18176;49.502;11.754;2023-02-04T08:15:07;98489.53;;;4.95;73.29
21185;BME280;18176;49.502;11.754;2023-02-04T08:19:09;98489.53;;;4.95;74.38
21185;BME280;18176;49.502;11.754;2023-02-04T08:23:17;98533.81;;;5.58;73.24
21185;BME280;18176;49.502;11.754;2023-02-04T08:27:19;98441.72;;;5.26;72.49
21185;BME280;18176;49.502;11.754;2023-02-04T08:31:20;98496.09;;;5.83;71.09
21185;BME280;18176;49.502;11.754;2023-02-04T08:35:20;98531.84;;;6.18;69.75
21185;BME280;18176;49.502;11.754;2023-02-04T08:39:24;98549.81;;;6.38;68.76
21185;BME280;18176;49.502;11.754;2023-02-04T08:43:26;98547.19;;;6.47;67.57
21185;BME280;18176;49.502;11.754;2023-02-04T08:47:29;98535.16;;;6.52;66.63
21185;BME280;18176;49.502;11.754;2023-02-04T08:51:33;98554.75;;;6.50;65.75
21185;BME280;18176;49.502;11.754;2023-02-04T08:55:36;98543.84;;;7.09;63.13
21185;BME280;18176;49.502;11.754;2023-02-04T08:59:37;98537.38;;;7.58;60.65
21185;BME280;18176;49.502;11.754;2023-02-04T09:03:37;98574.50;;;7.88;58.66
21185;BME280;18176;49.502;11.754;2023-02-04T09:07:42;98558.19;;;7.53;58.22
21185;BME280;18176;49.502;11.754;2023-02-04T09:11:48;98588.66;;;7.95;57.69
21185;BME280;18176;49.502;11.754;2023-02-04T09:15:51;98557.50;;;8.21;56.14
21185;BME280;18176;49.502;11.754;2023-02-04T09:19:52;98555.44;;;8.39;51.66
21185;BME280;18176;49.502;11.754;2023-02-04T09:23:59;98548.00;;;8.12;54.49
21185;BME280;18176;49.502;11.754;2023-02-04T09:28:03;98592.75;;;8.36;51.49
21185;BME280;18176;49.502;11.754;2023-02-04T09:32:09;98581.38;;;7.66;51.49
21185;BME280;18176;49.502;11.754;2023-02-04T09:36:14;98580.28;;;7.44;52.11
21185;BME280;18176;49.502;11.754;2023-02-04T09:40:17;98605.59;;;7.69;51.50
21185;BME280;18176;49.502;11.754;2023-02-04T09:44:25;98638.22;;;7.76;51.29
21185;BME280;18176;49.502;11.754;2023-02-04T09:48:27;98655.28;;;7.97;53.17
21185;BME280;18176;49.502;11.754;2023-02-04T09:52:29;98664.78;;;8.22;50.18
21185;BME280;18176;49.502;11.754;2023-02-04T09:56:30;98644.91;;;8.87;48.52
21185;BME280;18176;49.502;11.754;2023-02-04T10:00:39;98665.81;;;8.74;46.37
21185;BME280;18176;49.502;11.754;2023-02-04T10:04:40;98663.41;;;8.34;46.16
21185;BME280;18176;49.502;11.754;2023-02-04T10:08:42;98662.78;;;8.24;46.01
21185;BME280;18176;49.502;11.754;2023-02-04T10:12:52;98669.19;;;7.91;46.33
21185;BME280;18176;49.502;11.754;2023-02-04T10:17:00;98663.59;;;7.86;47.33
21185;BME280;18176;49.502;11.754;2023-02-04T10:21:16;98646.84;;;7.62;47.56
21185;BME280;18176;49.502;11.754;2023-02-04T10:25:20;98683.78;;;7.70;48.44
21185;BME280;18176;49.502;11.754;2023-02-04T10:29:23;98683.75;;;7.78;47.53
21185;BME280;18176;49.502;11.754;2023-02-04T10:33:26;98680.06;;;7.96;47.82
21185;BME280;18176;49.502;11.754;2023-02-04T10:37:29;98654.22;;;8.22;47.31
21185;BME280;18176;49.502;11.754;2023-02-04T10:41:29;98685.41;;;8.57;45.42
21185;BME280;18176;49.502;11.754;2023-02-04T10:45:35;98686.03;;;8.90;45.34
21185;BME280;18176;49.502;11.754;2023-02-04T10:49:38;98688.06;;;9.25;45.71
21185;BME280;18176;49.502;11.754;2023-02-04T10:53:39;98670.75;;;8.77;45.17
21185;BME280;18176;49.502;11.754;2023-02-04T10:57:52;98689.16;;;8.40;46.12
21185;BME280;18176;49.502;11.754;2023-02-04T11:02:05;98695.97;;;8.57;47.39
21185;BME280;18176;49.502;11.754;2023-02-04T11:06:22;98671.38;;;8.18;46.47
21185;BME280;18176;49.502;11.754;2023-02-04T11:10:29;98664.84;;;8.06;47.45
21185;BME280;18176;49.502;11.754;2023-02-04T11:14:31;98671.44;;;8.10;47.24
21185;BME280;18176;49.502;11.754;2023-02-04T11:18:45;98681.78;;;8.58;46.51
21185;BME280;18176;49.502;11.754;2023-02-04T11:22:49;98686.34;;;9.09;46.60
21185;BME280;18176;49.502;11.754;2023-02-04T11:27:04;98686.06;;;9.94;45.13
21185;BME280;18176;49.502;11.754;2023-02-04T11:31:26;98683.84;;;10.41;43.00
21185;BME280;18176;49.502;11.754;2023-02-04T11:35:29;98683.69;;;10.28;42.61
21185;BME280;18176;49.502;11.754;2023-02-04T11:39:37;98691.81;;;9.82;41.78
21185;BME280;18176;49.502;11.754;2023-02-04T11:43:38;98658.06;;;8.95;43.69
21185;BME280;18176;49.502;11.754;2023-02-04T11:47:40;98694.09;;;8.66;44.47
21185;BME280;18176;49.502;11.754;2023-02-04T11:51:42;98700.72;;;8.92;45.57
21185;BME280;18176;49.502;11.754;2023-02-04T11:55:46;98670.44;;;10.85;40.84
21185;BME280;18176;49.502;11.754;2023-02-04T11:59:47;98665.25;;;13.29;38.50
21185;BME280;18176;49.502;11.754;2023-02-04T12:03:56;98677.53;;;13.70;36.05
21185;BME280;18176;49.502;11.754;2023-02-04T12:08:12;98666.25;;;12.35;38.10
21185;BME280;18176;49.502;11.754;2023-02-04T12:12:24;98677.53;;;10.99;39.73
21185;BME280;18176;49.502;11.754;2023-02-04T12:16:25;98695.59;;;10.17;41.14
21185;BME280;18176;49.502;11.754;2023-02-04T12:20:26;98695.75;;;9.35;43.57
21185;BME280;18176;49.502;11.754;2023-02-04T12:24:27;98696.06;;;8.94;44.92
21185;BME280;18176;49.502;11.754;2023-02-04T12:28:31;98679.06;;;8.43;45.54
21185;BME280;18176;49.502;11.754;2023-02-04T12:32:33;98704.84;;;8.64;44.63
21185;BME280;18176;49.502;11.754;2023-02-04T12:36:34;98705.38;;;9.50;44.82
21185;BME280;18176;49.502;11.754;2023-02-04T12:40:39;98704.03;;;10.56;41.12
21185;BME280;18176;49.502;11.754;2023-02-04T12:44:42;98688.59;;;11.51;38.15
21185;BME280;18176;49.502;11.754;2023-02-04T12:48:46;98694.84;;;12.27;37.45
21185;BME280;18176;49.502;11.754;2023-02-04T12:52:49;98655.84;;;10.89;38.62
21185;BME280;18176;49.502;11.754;2023-02-04T12:56:50;98716.81;;;10.09;40.12
21185;BME280;18176;49.502;11.754;2023-02-04T13:00:57;98705.53;;;9.11;41.35
21185;BME280;18176;49.502;11.754;2023-02-04T13:05:00;98715.56;;;8.71;43.12
21185;BME280;18176;49.502;11.754;2023-02-04T13:09:01;98694.69;;;8.53;43.28
21185;BME280;18176;49.502;11.754;2023-02-04T13:13:03;98713.63;;;8.87;42.92
21185;BME280;18176;49.502;11.754;2023-02-04T13:17:07;98693.09;;;11.02;39.98
21185;BME280;18176;49.502;11.754;2023-02-04T13:21:08;98669.75;;;13.49;34.64
21185;BME280;18176;49.502;11.754;2023-02-04T13:25:10;98674.72;;;16.28;31.95
21185;BME280;18176;49.502;11.754;2023-02-04T13:29:13;98695.13;;;17.59;28.77
21185;BME280;18176;49.502;11.754;2023-02-04T13:33:16;98693.09;;;17.43;28.68
21185;BME280;18176;49.502;11.754;2023-02-04T13:37:19;98695.09;;;17.06;28.26
21185;BME280;18176;49.502;11.754;2023-02-04T13:41:19;98708.81;;;17.28;29.04
21185;BME280;18176;49.502;11.754;2023-02-04T13:45:21;98705.41;;;17.62;28.52
21185;BME280;18176;49.502;11.754;2023-02-04T13:49:26;98676.91;;;16.12;29.63
21185;BME280;18176;49.502;11.754;2023-02-04T13:53:27;98703.66;;;15.45;31.67
21185;BME280;18176;49.502;11.754;2023-02-04T13:57:28;98664.00;;;13.38;33.45
21185;BME280;18176;49.502;11.754;2023-02-04T14:01:29;98714.31;;;12.34;35.22
21185;BME280;18176;49.502;11.754;2023-02-04T14:05:33;98709.09;;;10.94;37.62
21185;BME280;18176;49.502;11.754;2023-02-04T14:09:36;98725.16;;;10.21;39.46
21185;BME280;18176;49.502;11.754;2023-02-04T14:13:37;98620.91;;;8.74;40.87
21185;BME280;18176;49.502;11.754;2023-02-04T14:17:40;98736.06;;;8.91;41.70
21185;BME280;18176;49.502;11.754;2023-02-04T14:21:43;98732.28;;;8.63;42.40
21185;BME280;18176;49.502;11.754;2023-02-04T14:25:46;98703.97;;;8.49;42.91
21185;BME280;18176;49.502;11.754;2023-02-04T14:29:47;98737.28;;;8.50;42.77
21185;BME280;18176;49.502;11.754;2023-02-04T14:33:47;98734.25;;;8.61;43.39
21185;BME280;18176;49.502;11.754;2023-02-04T14:37:51;98733.50;;;8.83;42.38
21185;BME280;18176;49.502;11.754;2023-02-04T14:41:51;98721.03;;;8.69;42.67
21185;BME280;18176;49.502;11.754;2023-02-04T14:45:52;98697.53;;;9.19;41.52
21185;BME280;18176;49.502;11.754;2023-02-04T14:49:56;98727.66;;;10.73;39.32
21185;BME280;18176;49.502;11.754;2023-02-04T14:53:59;98731.94;;;11.79;37.19
21185;BME280;18176;49.502;11.754;2023-02-04T14:58:00;98715.09;;;11.93;36.39
21185;BME280;18176;49.502;11.754;2023-02-04T15:02:02;98743.84;;;11.62;35.46
21185;BME280;18176;49.502;11.754;2023-02-04T15:06:09;98757.88;;;11.77;36.02
21185;BME280;18176;49.502;11.754;2023-02-04T15:10:13;98763.09;;;11.92;36.07
21185;BME280;18176;49.502;11.754;2023-02-04T15:14:14;98698.97;;;11.67;36.38
21185;BME280;18176;49.502;11.754;2023-02-04T15:18:16;98776.34;;;11.43;36.85
21185;BME280;18176;49.502;11.754;2023-02-04T15:22:16;98779.34;;;10.18;38.96
21185;BME280;18176;49.502;11.754;2023-02-04T15:26:20;98777.47;;;9.30;40.41
21185;BME280;18176;49.502;11.754;2023-02-04T15:30:21;98775.47;;;8.78;41.70
21185;BME280;18176;49.502;11.754;2023-02-04T15:34:22;98767.69;;;8.54;42.58
21185;BME280;18176;49.502;11.754;2023-02-04T15:38:23;98782.97;;;8.04;43.77
21185;BME280;18176;49.502;11.754;2023-02-04T15:42:27;98754.66;;;7.90;43.64
21185;BME280;18176;49.502;11.754;2023-02-04T15:46:29;98793.91;;;8.01;44.86
21185;BME280;18176;49.502;11.754;2023-02-04T15:50:31;98784.91;;;8.34;44.20
21185;BME280;18176;49.502;11.754;2023-02-04T15:54:34;98780.50;;;8.65;44.58
21185;BME280;18176;49.502;11.754;2023-02-04T15:58:39;98769.88;;;8.73;44.28
21185;BME280;18176;49.502;11.754;2023-02-04T16:02:40;98789.25;;;8.11;45.22
21185;BME280;18176;49.502;11.754;2023-02-04T16:06:45;98787.50;;;7.39;46.45
21185;BME280;18176;49.502;11.754;2023-02-04T16:10:54;98766.59;;;6.55;48.26
21185;BME280;18176;49.502;11.754;2023-02-04T16:14:58;98784.03;;;6.14;49.61
21185;BME280;18176;49.502;11.754;2023-02-04T16:18:59;98822.03;;;5.94;50.91
21185;BME280;18176;49.502;11.754;2023-02-04T16:23:00;98806.00;;;5.62;51.85
21185;BME280;18176;49.502;11.754;2023-02-04T16:27:00;98795.88;;;5.49;52.23
21185;BME280;18176;49.502;11.754;2023-02-04T16:31:04;98825.38;;;5.43;52.59
21185;BME280;18176;49.502;11.754;2023-02-04T16:35:07;98816.63;;;5.00;53.38
21185;BME280;18176;49.502;11.754;2023-02-04T16:39:09;98828.59;;;4.84;54.13
21185;BME280;18176;49.502;11.754;2023-02-04T16:43:10;98839.09;;;4.84;54.45
21185;BME280;18176;49.502;11.754;2023-02-04T16:47:13;98817.19;;;4.49;55.17
21185;BME280;18176;49.502;11.754;2023-02-04T16:51:15;98827.13;;;4.45;55.52
21185;BME280;18176;49.502;11.754;2023-02-04T16:55:16;98824.56;;;4.36;56.00
21185;BME280;18176;49.502;11.754;2023-02-04T16:59:17;98829.59;;;4.47;55.86
21185;BME280;18176;49.502;11.754;2023-02-04T17:03:20;98851.66;;;4.63;55.35
21185;BME280;18176;49.502;11.754;2023-02-04T17:07:21;98854.88;;;4.57;55.53
21185;BME280;18176;49.502;11.754;2023-02-04T17:11:22;98860.19;;;4.38;56.79
21185;BME280;18176;49.502;11.754;2023-02-04T17:15:29;98872.81;;;4.25;58.23
21185;BME280;18176;49.502;11.754;2023-02-04T17:19:42;98823.19;;;3.95;57.44
21185;BME280;18176;49.502;11.754;2023-02-04T17:23:43;98873.94;;;4.13;57.35
21185;BME280;18176;49.502;11.754;2023-02-04T17:27:44;98877.31;;;3.96;57.77
21185;BME280;18176;49.502;11.754;2023-02-04T17:31:47;98848.31;;;3.78;57.64
21185;BME280;18176;49.502;11.754;2023-02-04T17:35:52;98853.88;;;3.66;57.55
21185;BME280;18176;49.502;11.754;2023-02-04T17:39:53;98856.63;;;3.35;59.39
21185;BME280;18176;49.502;11.754;2023-02-04T17:43:53;98841.28;;;3.02;60.20
21185;BME280;18176;49.502;11.754;2023-02-04T17:47:55;98884.19;;;3.20;60.47
21185;BME280;18176;49.502;11.754;2023-02-04T17:52:00;98877.84;;;3.04;61.46
21185;BME280;18176;49.502;11.754;2023-02-04T17:56:00;98889.78;;;2.87;61.99
21185;BME280;18176;49.502;11.754;2023-02-04T18:00:11;98887.22;;;2.66;62.58
21185;BME280;18176;49.502;11.754;2023-02-04T18:04:13;98824.50;;;2.16;63.24
21185;BME280;18176;49.502;11.754;2023-02-04T18:08:20;98893.22;;;2.48;64.20
21185;BME280;18176;49.502;11.754;2023-02-04T18:12:24;98892.09;;;2.41;64.47
21185;BME280;18176;49.502;11.754;2023-02-04T18:16:29;98896.72;;;2.37;64.21
21185;BME280;18176;49.502;11.754;2023-02-04T18:20:32;98899.31;;;2.28;64.62
21185;BME280;18176;49.502;11.754;2023-02-04T18:24:38;98895.13;;;2.16;65.62
21185;BME280;18176;49.502;11.754;2023-02-04T18:28:45;98886.22;;;1.97;66.22
21185;BME280;18176;49.502;11.754;2023-02-04T18:32:47;98859.25;;;1.76;66.21
21185;BME280;18176;49.502;11.754;2023-02-04T18:36:50;98867.16;;;1.86;66.01
21185;BME280;18176;49.502;11.754;2023-02-04T18:41:08;98856.69;;;1.86;67.30
21185;BME280;18176;49.502;11.754;2023-02-04T18:45:23;98850.00;;;1.72;67.42
21185;BME280;18176;49.502;11.754;2023-02-04T18:49:28;98753.50;;;0.98;67.48
21185;BME280;18176;49.502;11.754;2023-02-04T18:53:34;98791.03;;;1.17;67.63
21185;BME280;18176;49.502;11.754;2023-02-04T18:57:43;98835.47;;;1.38;68.41
21185;BME280;18176;49.502;11.754;2023-02-04T19:01:46;98844.63;;;1.32;68.50
21185;BME280;18176;49.502;11.754;2023-02-04T19:05:48;98857.91;;;1.29;70.57
21185;BME280;18176;49.502;11.754;2023-02-04T19:09:50;98882.47;;;1.38;70.10
21185;BME280;18176;49.502;11.754;2023-02-04T19:13:59;98822.81;;;0.91;70.49
21185;BME280;18176;49.502;11.754;2023-02-04T19:18:18;98893.59;;;1.72;74.07
21185;BME280;18176;49.502;11.754;2023-02-04T19:22:30;98772.53;;;0.89;73.09
21185;BME280;18176;49.502;11.754;2023-02-04T19:26:42;98851.38;;;1.35;72.29
21185;BME280;18176;49.502;11.754;2023-02-04T19:30:59;98845.69;;;1.30;72.05
21185;BME280;18176;49.502;11.754;2023-02-04T19:35:17;98876.84;;;1.22;72.79
21185;BME280;18176;49.502;11.754;2023-02-04T19:39:28;98904.91;;;1.29;73.00
21185;BME280;18176;49.502;11.754;2023-02-04T19:43:38;98910.28;;;1.28;73.08
21185;BME280;18176;49.502;11.754;2023-02-04T19:47:50;98923.38;;;1.17;73.21
21185;BME280;18176;49.502;11.754;2023-02-04T19:51:57;98846.00;;;0.62;73.40
21185;BME280;18176;49.502;11.754;2023-02-04T19:55:58;98910.44;;;1.04;73.81
21185;BME280;18176;49.502;11.754;2023-02-04T20:00:01;98878.69;;;0.88;73.74
21185;BME280;18176;49.502;11.754;2023-02-04T20:04:17;98894.44;;;0.98;73.78
21185;BME280;18176;49.502;11.754;2023-02-04T20:08:46;98919.91;;;1.16;73.00
21185;BME280;18176;49.502;11.754;2023-02-04T20:12:54;98833.78;;;0.51;73.00
21185;BME280;18176;49.502;11.754;2023-02-04T20:17:03;98915.94;;;0.79;73.91
21185;BME280;18176;49.502;11.754;2023-02-04T20:21:13;98925.81;;;0.76;74.65
21185;BME280;18176;49.502;11.754;2023-02-04T20:25:42;98875.78;;;0.48;74.19
21185;BME280;18176;49.502;11.754;2023-02-04T20:29:50;98901.38;;;0.54;74.61
21185;BME280;18176;49.502;11.754;2023-02-04T20:33:58;98949.66;;;0.71;74.57
21185;BME280;18176;49.502;11.754;2023-02-04T20:38:15;98901.88;;;0.48;74.26
21185;BME280;18176;49.502;11.754;2023-02-04T20:42:39;98951.91;;;0.76;74.68
21185;BME280;18176;49.502;11.754;2023-02-04T20:46:46;98954.25;;;0.67;75.02
21185;BME280;18176;49.502;11.754;2023-02-04T20:50:50;98950.94;;;0.65;75.26
21185;BME280;18176;49.502;11.754;2023-02-04T20:54:59;98961.22;;;0.34;76.92
21185;BME280;18176;49.502;11.754;2023-02-04T20:59:30;98970.47;;;0.49;76.80
21185;BME280;18176;49.502;11.754;2023-02-04T21:03:38;98937.06;;;0.32;76.58
21185;BME280;18176;49.502;11.754;2023-02-04T21:07:44;98814.78;;;-0.50;75.98
21185;BME280;18176;49.502;11.754;2023-02-04T21:11:48;98956.72;;;0.47;75.93
21185;BME280;18176;49.502;11.754;2023-02-04T21:15:53;98847.53;;;-0.13;75.44
21185;BME280;18176;49.502;11.754;2023-02-04T21:19:58;98954.97;;;0.36;75.98
21185;BME280;18176;49.502;11.754;2023-02-04T21:24:02;98868.38;;;-0.13;75.96
21185;BME280;18176;49.502;11.754;2023-02-04T21:28:14;98831.59;;;-0.43;75.82
21185;BME280;18176;49.502;11.754;2023-02-04T21:32:17;98822.38;;;-0.47;74.98
21185;BME280;18176;49.502;11.754;2023-02-04T21:36:22;98951.38;;;0.37;74.63